sensor_id;sensor_type;location;lat;lon;timestamp;temperature;humidity
17956;DHT22;27666;51.498;11.966;2023-11-21T17:01:26;4.80;99.90
17956;DHT22;27666;51.498;11.966;2023-11-21T17:04:14;4.70;99.90
17956;DHT22;27666;51.498;11.966;2023-11-21T17:07:06;4.70;99.90
17956;DHT22;27666;51.498;11.966;2023-11-21T17:09:53;4.60;99.90
17956;DHT22;27666;51.498;11.966;2023-11-21T17:12:40;4.60;99.90
17956;DHT22;27666;51.498;11.966;2023-11-21T17:15:27;4.60;99.90
17956;DHT22;27666;51.498;11.966;2023-11-21T17:18:15;4.60;99.90
17956;DHT22;27666;51.498;11.966;2023-11-21T17:21:01;4.60;99.90
17956;DHT22;27666;51.498;11.966;2023-11-21T17:23:49;4.60;99.90
17956;DHT22;27666;51.498;11.966;2023-11-21T17:26:36;4.60;99.90
17956;DHT22;27666;51.498;11.966;2023-11-21T17:29:23;4.60;99.90
17956;DHT22;27666;51.498;11.966;2023-11-21T17:32:11;4.40;99.90
17956;DHT22;27666;51.498;11.966;2023-11-21T17:35:03;4.40;99.90
17956;DHT22;27666;51.498;11.966;2023-11-21T17:37:50;4.40;99.90
17956;DHT22;27666;51.498;11.966;2023-11-21T17:40:37;4.40;99.90
17956;DHT22;27666;51.498;11.966;2023-11-21T17:43:26;4.40;99.90
17956;DHT22;27666;51.498;11.966;2023-11-21T17:46:18;4.40;99.90
17956;DHT22;27666;51.498;11.966;2023-11-21T17:49:05;4.40;99.90
17956;DHT22;27666;51.498;11.966;2023-11-21T17:51:55;4.30;99.90
17956;DHT22;27666;51.498;11.966;2023-11-21T17:54:41;4.30;99.90
17956;DHT22;27666;51.498;11.966;2023-11-21T17:57:28;4.30;99.90
17956;DHT22;27666;51.498;11.966;2023-11-21T18:00:17;4.30;99.90
17956;DHT22;27666;51.498;11.966;2023-11-21T18:03:05;4.20;99.90
17956;DHT22;27666;51.498;11.966;2023-11-21T18:05:51;4.20;99.90
17956;DHT22;27666;51.498;11.966;2023-11-21T18:08:40;4.30;99.90
17956;DHT22;27666;51.498;11.966;2023-11-21T18:11:28;4.30;99.90
17956;DHT22;27666;51.498;11.966;2023-11-21T18:14:14;4.30;99.90
17956;DHT22;27666;51.498;11.966;2023-11-21T18:17:01;4.30;99.90
17956;DHT22;27666;51.498;11.966;2023-11-21T18:19:48;4.30;99.90
17956;DHT22;27666;51.498;11.966;2023-11-21T18:22:40;4.20;99.90
17956;DHT22;27666;51.498;11.966;2023-11-21T18:25:28;4.20;99.90
17956;DHT22;27666;51.498;11.966;2023-11-21T18:28:14;4.20;99.90
17956;DHT22;27666;51.498;11.966;2023-11-21T18:31:05;4.20;99.90
17956;DHT22;27666;51.498;11.966;2023-11-21T18:33:53;4.10;99.90
17956;DHT22;27666;51.498;11.966;2023-11-21T18:36:43;4.10;99.90
17956;DHT22;27666;51.498;11.966;2023-11-21T18:39:30;4.10;99.90
17956;DHT22;27666;51.498;11.966;2023-11-21T18:42:18;4.10;99.90
17956;DHT22;27666;51.498;11.966;2023-11-21T18:45:06;4.10;99.90
17956;DHT22;27666;51.498;11.966;2023-11-21T18:47:54;4.10;99.90
17956;DHT22;27666;51.498;11.966;2023-11-21T18:50:41;4.10;99.90
17956;DHT22;27666;51.498;11.966;2023-11-21T18:53:28;4.10;99.90
17956;DHT22;27666;51.498;11.966;2023-11-21T18:56:21;4.10;99.90
17956;DHT22;27666;51.498;11.966;2023-11-21T18:59:11;4.00;99.90
17956;DHT22;27666;51.498;11.966;2023-11-21T19:01:59;4.10;99.90
17956;DHT22;27666;51.498;11.966;2023-11-21T19:04:46;4.10;99.90
17956;DHT22;27666;51.498;11.966;2023-11-21T19:07:33;4.10;99.90
17956;DHT22;27666;51.498;11.966;2023-11-21T19:10:27;4.10;99.90
17956;DHT22;27666;51.498;11.966;2023-11-21T19:13:19;4.10;99.90
17956;DHT22;27666;51.498;11.966;2023-11-21T19:16:08;4.10;99.90
17956;DHT22;27666;51.498;11.966;2023-11-21T19:18:55;4.10;99.90
17956;DHT22;27666;51.498;11.966;2023-11-21T19:21:46;4.00;99.90
17956;DHT22;27666;51.498;11.966;2023-11-21T19:24:33;3.90;99.90
17956;DHT22;27666;51.498;11.966;2023-11-21T19:27:20;4.00;99.90
17956;DHT22;27666;51.498;11.966;2023-11-21T19:30:08;3.90;99.90
17956;DHT22;27666;51.498;11.966;2023-11-21T19:32:57;3.90;99.90
17956;DHT22;27666;51.498;11.966;2023-11-21T19:35:50;3.90;99.90
17956;DHT22;27666;51.498;11.966;2023-11-21T19:38:37;3.80;99.90
17956;DHT22;27666;51.498;11.966;2023-11-21T19:41:24;3.90;99.90
17956;DHT22;27666;51.498;11.966;2023-11-21T19:44:12;3.90;99.90
17956;DHT22;27666;51.498;11.966;2023-11-21T19:47:01;3.90;99.90
17956;DHT22;27666;51.498;11.966;2023-11-21T19:49:50;3.90;99.90
17956;DHT22;27666;51.498;11.966;2023-11-21T19:52:40;4.10;99.90
17956;DHT22;27666;51.498;11.966;2023-11-21T19:55:26;4.10;99.90
17956;DHT22;27666;51.498;11.966;2023-11-21T19:58:13;4.00;99.90
17956;DHT22;27666;51.498;11.966;2023-11-21T20:01:03;3.90;99.90
17956;DHT22;27666;51.498;11.966;2023-11-21T20:03:50;3.80;99.90
17956;DHT22;27666;51.498;11.966;2023-11-21T20:06:41;3.80;99.90
17956;DHT22;27666;51.498;11.966;2023-11-21T20:09:38;3.70;99.90
17956;DHT22;27666;51.498;11.966;2023-11-21T20:12:25;3.70;99.90
17956;DHT22;27666;51.498;11.966;2023-11-21T20:15:12;3.70;99.90
17956;DHT22;27666;51.498;11.966;2023-11-21T20:17:58;3.70;99.90
17956;DHT22;27666;51.498;11.966;2023-11-21T20:20:45;3.60;99.90
17956;DHT22;27666;51.498;11.966;2023-11-21T20:23:36;3.60;99.90
17956;DHT22;27666;51.498;11.966;2023-11-21T20:26:23;3.60;99.90
17956;DHT22;27666;51.498;11.966;2023-11-21T20:29:11;3.60;99.90
17956;DHT22;27666;51.498;11.966;2023-11-21T20:31:57;3.60;99.90
17956;DHT22;27666;51.498;11.966;2023-11-21T20:34:44;3.60;99.90
17956;DHT22;27666;51.498;11.966;2023-11-21T20:37:32;3.60;99.90
17956;DHT22;27666;51.498;11.966;2023-11-21T20:40:21;3.50;99.90
17956;DHT22;27666;51.498;11.966;2023-11-21T20:43:13;3.50;99.90
17956;DHT22;27666;51.498;11.966;2023-11-21T20:45:59;3.50;99.90
17956;DHT22;27666;51.498;11.966;2023-11-21T20:48:46;3.40;99.90
17956;DHT22;27666;51.498;11.966;2023-11-21T20:51:36;3.40;99.90
17956;DHT22;27666;51.498;11.966;2023-11-21T20:54:22;3.40;99.90
17956;DHT22;27666;51.498;11.966;2023-11-21T20:57:10;3.40;99.90
17956;DHT22;27666;51.498;11.966;2023-11-21T20:59:57;3.40;99.90
17956;DHT22;27666;51.498;11.966;2023-11-21T21:02:44;3.30;99.90
17956;DHT22;27666;51.498;11.966;2023-11-21T21:05:33;3.30;99.90
17956;DHT22;27666;51.498;11.966;2023-11-21T21:08:20;3.20;99.90
17956;DHT22;27666;51.498;11.966;2023-11-21T21:11:08;3.20;99.90
17956;DHT22;27666;51.498;11.966;2023-11-21T21:13:56;3.20;99.90
17956;DHT22;27666;51.498;11.966;2023-11-21T21:16:43;3.20;99.90
17956;DHT22;27666;51.498;11.966;2023-11-21T21:19:30;3.10;99.90
17956;DHT22;27666;51.498;11.966;2023-11-21T21:25:08;3.10;99.90
17956;DHT22;27666;51.498;11.966;2023-11-21T21:27:59;3.10;99.90
17956;DHT22;27666;51.498;11.966;2023-11-21T21:30:47;3.10;99.90
